createdAt,value
2022-08-16T00:02:47.800Z,22.61
2022-08-16T00:05:57.654Z,22.59
2022-08-16T00:09:00.290Z,22.53
2022-08-16T00:12:02.399Z,22.46
2022-08-16T00:15:12.048Z,22.42
2022-08-16T00:18:29.862Z,22.37
2022-08-16T00:21:38.581Z,22.32
2022-08-16T00:24:46.657Z,22.26
2022-08-16T00:27:55.571Z,22.23
2022-08-16T00:30:59.286Z,22.11
2022-08-16T00:34:04.501Z,22.28
2022-08-16T00:37:06.584Z,22.19
2022-08-16T00:40:33.696Z,22.09
2022-08-16T00:43:42.630Z,22.03
2022-08-16T00:47:02.257Z,22.04
2022-08-16T00:50:14.111Z,22.02
2022-08-16T00:53:19.141Z,21.79
2022-08-16T00:56:57.679Z,21.83
2022-08-16T00:59:58.847Z,21.82
2022-08-16T01:03:11.814Z,21.75
2022-08-16T01:06:39.859Z,21.73
2022-08-16T01:09:42.984Z,21.61
2022-08-16T01:12:47.597Z,21.58
2022-08-16T01:16:22.815Z,21.62
2022-08-16T01:19:33.193Z,21.61
2022-08-16T01:22:49.875Z,21.62
2022-08-16T01:25:59.899Z,21.58
2022-08-16T01:29:22.481Z,21.64
2022-08-16T01:32:44.714Z,21.57
2022-08-16T01:36:12.371Z,21.47
2022-08-16T01:39:18.585Z,21.33
2022-08-16T01:42:24.697Z,21.36
2022-08-16T01:45:40.822Z,21.35
2022-08-16T01:48:46.378Z,21.33
2022-08-16T01:51:53.331Z,21.34
2022-08-16T01:55:05.283Z,21.36
2022-08-16T01:58:12.795Z,21.41
2022-08-16T02:01:28.606Z,21.42
2022-08-16T02:04:49.303Z,21.43
2022-08-16T02:07:56.755Z,21.47
2022-08-16T02:10:59.497Z,21.37
2022-08-16T02:14:18.310Z,21.32
2022-08-16T02:17:31.163Z,21.28
2022-08-16T02:20:36.390Z,21.31
2022-08-16T02:23:42.273Z,21.29
2022-08-16T02:26:46.358Z,21.32
2022-08-16T02:30:05.022Z,21.42
2022-08-16T02:33:16.471Z,21.41
2022-08-16T02:36:47.873Z,21.33
2022-08-16T02:39:42.398Z,21.20
2022-08-16T02:42:45.161Z,21.06
2022-08-16T02:45:57.312Z,20.92
2022-08-16T02:49:01.759Z,20.93
2022-08-16T02:52:05.265Z,20.97
2022-08-16T02:55:12.128Z,20.94
2022-08-16T02:58:19.355Z,20.88
2022-08-16T03:01:37.014Z,20.85
2022-08-16T03:04:52.418Z,20.77
2022-08-16T03:07:57.415Z,20.78
2022-08-16T03:11:04.539Z,20.72
2022-08-16T03:14:07.521Z,20.67
2022-08-16T03:17:10.602Z,20.64
2022-08-16T03:20:15.689Z,20.50
2022-08-16T03:23:22.207Z,20.45
2022-08-16T03:26:26.045Z,20.51
2022-08-16T03:29:30.300Z,20.48
2022-08-16T03:32:32.604Z,20.49
2022-08-16T03:35:40.049Z,20.43
2022-08-16T03:38:43.821Z,20.38
2022-08-16T03:41:50.172Z,20.32
2022-08-16T03:45:03.491Z,20.30
2022-08-16T03:48:07.848Z,20.42
2022-08-16T03:51:14.394Z,20.40
2022-08-16T03:54:16.808Z,20.41
2022-08-16T03:57:20.449Z,20.48
2022-08-16T04:00:35.909Z,20.32
2022-08-16T04:03:43.112Z,20.39
2022-08-16T04:06:46.773Z,20.52
2022-08-16T04:09:49.660Z,20.62
2022-08-16T04:12:55.069Z,20.73
2022-08-16T04:16:03.926Z,20.83
2022-08-16T04:19:09.898Z,20.95
2022-08-16T04:22:13.701Z,21.05
2022-08-16T04:25:20.069Z,21.00
2022-08-16T04:28:29.688Z,20.88
2022-08-16T04:31:56.785Z,20.84
2022-08-16T04:35:08.515Z,20.94
2022-08-16T04:38:21.404Z,20.96
2022-08-16T04:41:32.924Z,21.01
2022-08-16T04:44:53.816Z,21.05
2022-08-16T04:48:00.178Z,21.24
2022-08-16T04:51:11.533Z,21.54
2022-08-16T04:54:19.488Z,21.71
2022-08-16T04:57:22.168Z,21.79
2022-08-16T05:00:34.649Z,21.88
2022-08-16T05:03:42.038Z,22.00
2022-08-16T05:07:00.606Z,22.04
2022-08-16T05:10:05.639Z,22.01
2022-08-16T05:13:23.331Z,21.94
2022-08-16T05:16:48.479Z,21.71
2022-08-16T05:19:58.359Z,21.33
2022-08-16T05:23:03.586Z,20.88
2022-08-16T05:26:19.537Z,20.62
2022-08-16T05:29:22.669Z,19.78
2022-08-16T05:32:32.596Z,19.13
2022-08-16T05:35:38.510Z,18.73
2022-08-16T05:38:40.813Z,18.63
2022-08-16T05:41:45.201Z,18.75
2022-08-16T05:44:48.013Z,18.86
2022-08-16T05:48:00.422Z,19.09
2022-08-16T05:51:03.980Z,19.27
2022-08-16T05:54:11.377Z,19.23
2022-08-16T05:57:20.668Z,19.41
2022-08-16T06:00:23.378Z,19.65
2022-08-16T06:03:26.049Z,19.97
2022-08-16T06:06:31.529Z,20.20
2022-08-16T06:09:42.713Z,20.65
2022-08-16T06:12:46.144Z,21.02
2022-08-16T06:15:55.756Z,21.29
2022-08-16T06:18:58.053Z,21.57
2022-08-16T06:22:06.845Z,21.75
2022-08-16T06:25:12.524Z,21.95
2022-08-16T06:28:35.011Z,22.22
2022-08-16T06:31:46.721Z,22.69
2022-08-16T06:34:57.205Z,23.26
2022-08-16T06:38:00.421Z,23.45
2022-08-16T06:41:13.560Z,23.64
2022-08-16T06:44:21.059Z,23.82
2022-08-16T06:47:24.828Z,23.83
2022-08-16T06:50:56.513Z,24.02
2022-08-16T06:54:01.857Z,23.93
2022-08-16T06:57:16.538Z,24.18
2022-08-16T07:00:24.177Z,24.33
2022-08-16T07:03:32.769Z,24.64
2022-08-16T07:06:52.395Z,24.67
2022-08-16T07:09:59.829Z,24.59
2022-08-16T07:13:03.608Z,24.56
2022-08-16T07:16:15.438Z,24.57
2022-08-16T07:19:19.036Z,24.43
2022-08-16T07:22:38.110Z,24.42
2022-08-16T07:25:43.180Z,24.51
2022-08-16T07:28:47.359Z,24.62
2022-08-16T07:31:49.601Z,24.75
2022-08-16T07:34:54.833Z,24.78
2022-08-16T07:37:58.986Z,24.87
2022-08-16T07:41:02.089Z,24.96
2022-08-16T07:44:15.455Z,25.01
2022-08-16T07:47:24.342Z,25.29
2022-08-16T07:50:56.151Z,25.32
2022-08-16T07:54:02.449Z,25.25
2022-08-16T07:57:12.451Z,25.39
2022-08-16T08:00:18.276Z,25.48
2022-08-16T08:03:21.761Z,25.66
2022-08-16T08:06:28.268Z,25.45
2022-08-16T08:09:30.817Z,25.48
2022-08-16T08:12:36.195Z,25.60
2022-08-16T08:15:39.804Z,25.66
2022-08-16T08:19:01.242Z,25.98
2022-08-16T08:22:05.895Z,26.45
2022-08-16T08:25:09.626Z,26.63
2022-08-16T08:28:18.774Z,27.01
2022-08-16T08:31:24.718Z,27.71
2022-08-16T08:34:27.947Z,28.06
2022-08-16T08:37:54.740Z,27.65
2022-08-16T08:40:55.599Z,28.16
2022-08-16T08:43:58.418Z,28.70
2022-08-16T08:47:03.904Z,29.07
2022-08-16T08:50:10.711Z,29.33
2022-08-16T08:53:13.592Z,29.14
2022-08-16T08:56:23.626Z,29.49
2022-08-16T08:59:28.254Z,29.62
2022-08-16T09:02:31.137Z,29.90
2022-08-16T09:05:35.949Z,29.85
2022-08-16T09:08:40.190Z,30.10
2022-08-16T09:12:04.123Z,30.11
2022-08-16T09:15:13.447Z,30.12
2022-08-16T09:18:24.987Z,30.46
2022-08-16T09:21:31.487Z,30.76
2022-08-16T09:24:52.507Z,31.08
2022-08-16T09:27:58.070Z,30.98
2022-08-16T09:31:05.867Z,30.84
2022-08-16T09:34:08.932Z,31.09
2022-08-16T09:37:17.603Z,31.37
2022-08-16T09:40:33.292Z,31.29
2022-08-16T09:44:00.102Z,31.49
2022-08-16T09:47:10.476Z,31.52
2022-08-16T09:50:13.439Z,31.94
2022-08-16T09:53:27.252Z,32.29
2022-08-16T09:56:31.570Z,32.53
2022-08-16T09:59:38.429Z,32.41
2022-08-16T10:02:44.228Z,32.51
2022-08-16T10:05:50.705Z,32.94
2022-08-16T10:09:04.989Z,32.67
2022-08-16T10:12:28.267Z,32.84
2022-08-16T10:15:31.211Z,33.21
2022-08-16T10:19:00.748Z,33.17
2022-08-16T10:21:58.283Z,33.08
2022-08-16T10:25:00.468Z,32.81
2022-08-16T10:28:28.131Z,32.60
2022-08-16T10:31:45.388Z,32.67
2022-08-16T10:34:46.728Z,32.84
2022-08-16T10:37:54.066Z,33.22
2022-08-16T10:40:56.162Z,32.81
2022-08-16T10:43:59.263Z,33.53
2022-08-16T10:47:02.366Z,34.04
2022-08-16T10:50:06.348Z,34.45
2022-08-16T10:53:21.699Z,34.83
2022-08-16T10:56:52.169Z,34.60
2022-08-16T10:59:54.438Z,34.35
2022-08-16T11:03:43.129Z,34.79
2022-08-16T11:06:29.784Z,34.53
2022-08-16T11:09:31.917Z,34.55
2022-08-16T11:12:46.433Z,35.02
2022-08-16T11:15:55.447Z,34.97
2022-08-16T11:19:06.266Z,34.97
2022-08-16T11:22:38.771Z,35.11
2022-08-16T11:29:15.421Z,33.60
2022-08-16T11:32:20.265Z,32.75
2022-08-16T11:38:56.987Z,31.16
2022-08-16T11:42:02.572Z,29.53
2022-08-16T11:45:20.672Z,28.66
2022-08-16T11:48:25.354Z,28.30
2022-08-16T11:51:30.085Z,28.11
2022-08-16T11:54:36.707Z,28.10
2022-08-16T11:57:41.621Z,27.23
2022-08-16T12:00:52.795Z,26.22
2022-08-16T12:03:58.560Z,25.68
2022-08-16T12:07:03.108Z,25.68
2022-08-16T12:10:08.309Z,25.86
2022-08-16T12:13:10.849Z,26.11
2022-08-16T12:16:17.578Z,26.37
2022-08-16T12:19:35.423Z,26.72
2022-08-16T12:22:38.715Z,27.42
2022-08-16T12:25:42.207Z,28.58
2022-08-16T12:28:54.422Z,29.45
2022-08-16T12:32:00.949Z,29.61
2022-08-16T12:35:22.417Z,29.89
2022-08-16T12:38:41.463Z,30.90
2022-08-16T12:41:47.352Z,31.70
2022-08-16T12:44:51.166Z,32.04
2022-08-16T12:51:59.458Z,31.31
2022-08-16T12:55:00.113Z,30.73
2022-08-16T12:58:02.806Z,30.61
2022-08-16T13:01:17.513Z,30.34
2022-08-16T13:04:24.695Z,30.09
2022-08-16T13:07:28.827Z,29.55
2022-08-16T13:10:41.441Z,29.18
2022-08-16T13:13:46.349Z,29.16
2022-08-16T13:16:56.975Z,29.24
2022-08-16T13:20:08.701Z,29.62
2022-08-16T13:23:11.981Z,30.37
2022-08-16T13:26:19.429Z,31.28
2022-08-16T13:29:23.510Z,32.03
2022-08-16T13:32:39.558Z,32.81
2022-08-16T13:35:44.453Z,33.36
2022-08-16T13:38:47.585Z,33.83
2022-08-16T13:41:53.632Z,34.08
2022-08-16T13:44:58.642Z,33.42
2022-08-16T13:48:02.340Z,33.34
2022-08-16T13:51:07.584Z,33.74
2022-08-16T13:54:09.744Z,34.08
2022-08-16T13:57:12.679Z,34.29
2022-08-16T14:00:16.241Z,34.40
2022-08-16T14:03:22.301Z,34.12
2022-08-16T14:06:26.463Z,34.15
2022-08-16T14:09:32.009Z,34.11
2022-08-16T14:12:35.774Z,34.16
2022-08-16T14:15:38.176Z,34.22
2022-08-16T14:19:10.320Z,34.12
2022-08-16T14:22:42.596Z,33.80
2022-08-16T14:25:45.360Z,33.34
2022-08-16T14:29:01.229Z,33.16
2022-08-16T14:32:06.957Z,33.41
2022-08-16T14:35:11.594Z,33.66
2022-08-16T14:38:18.319Z,33.67
2022-08-16T14:41:21.287Z,33.46
2022-08-16T14:44:28.195Z,33.61
2022-08-16T14:47:34.272Z,33.47
2022-08-16T14:50:37.463Z,33.67
2022-08-16T14:53:45.499Z,33.70
2022-08-16T14:56:54.920Z,33.18
2022-08-16T15:00:00.774Z,32.10
2022-08-16T15:03:11.148Z,31.58
2022-08-16T15:06:14.606Z,30.27
2022-08-16T15:09:21.265Z,29.49
2022-08-16T15:12:31.311Z,28.90
2022-08-16T15:15:37.924Z,26.96
2022-08-16T15:18:40.494Z,24.62
2022-08-16T15:21:43.092Z,23.44
2022-08-16T15:24:45.688Z,22.92
2022-08-16T15:27:54.596Z,22.83
2022-08-16T15:31:00.951Z,23.11
2022-08-16T15:34:08.806Z,23.39
2022-08-16T15:37:22.947Z,23.69
2022-08-16T15:40:32.284Z,24.12
2022-08-16T15:43:40.069Z,24.52
2022-08-16T15:46:55.470Z,24.72
2022-08-16T15:50:04.504Z,25.15
2022-08-16T15:53:17.291Z,25.32
2022-08-16T15:56:20.287Z,25.79
2022-08-16T15:59:27.165Z,26.48
2022-08-16T16:02:32.094Z,26.99
2022-08-16T16:05:39.105Z,27.11
2022-08-16T16:12:16.323Z,27.21
2022-08-16T16:15:29.550Z,27.13
2022-08-16T16:18:34.654Z,26.98
2022-08-16T16:21:48.981Z,26.92
2022-08-16T16:24:56.453Z,26.94
2022-08-16T16:28:00.688Z,27.52
2022-08-16T16:31:05.419Z,27.81
2022-08-16T16:34:07.567Z,28.14
2022-08-16T16:37:14.828Z,28.37
2022-08-16T16:40:23.947Z,28.50
2022-08-16T16:43:36.142Z,28.60
2022-08-16T16:46:43.423Z,28.73
2022-08-16T16:49:46.784Z,28.76
2022-08-16T16:52:54.862Z,28.75
2022-08-16T16:55:58.119Z,28.63
2022-08-16T16:59:09.773Z,28.67
2022-08-16T17:02:41.862Z,28.53
2022-08-16T17:05:35.183Z,28.40
2022-08-16T17:08:41.524Z,28.32
2022-08-16T17:11:45.981Z,28.05
2022-08-16T17:15:00.273Z,27.74
2022-08-16T17:18:04.289Z,27.79
2022-08-16T17:21:25.178Z,27.76
2022-08-16T17:24:39.300Z,27.73
2022-08-16T17:27:42.564Z,27.40
2022-08-16T17:30:53.660Z,27.29
2022-08-16T17:33:56.718Z,27.26
2022-08-16T17:37:08.057Z,27.19
2022-08-16T17:40:40.268Z,27.04
2022-08-16T17:43:44.487Z,26.88
2022-08-16T17:46:52.097Z,26.78
2022-08-16T17:49:58.434Z,26.57
2022-08-16T17:53:03.406Z,26.51
2022-08-16T17:56:06.717Z,26.40
2022-08-16T17:59:10.301Z,26.32
2022-08-16T18:02:43.038Z,26.27
2022-08-16T18:05:38.388Z,26.22
2022-08-16T18:08:41.496Z,26.15
2022-08-16T18:11:46.355Z,26.04
2022-08-16T18:14:51.385Z,25.98
2022-08-16T18:17:55.262Z,26.02
2022-08-16T18:21:18.958Z,26.02
2022-08-16T18:24:21.273Z,25.99
2022-08-16T18:27:26.046Z,26.01
2022-08-16T18:30:29.394Z,25.91
2022-08-16T18:33:31.509Z,25.96
2022-08-16T18:36:34.839Z,26.04
2022-08-16T18:39:42.822Z,25.87
2022-08-16T18:42:57.134Z,25.83
2022-08-16T18:45:59.277Z,25.74
2022-08-16T18:49:04.351Z,25.62
2022-08-16T18:52:07.108Z,25.48
2022-08-16T18:55:14.655Z,25.38
2022-08-16T18:58:17.982Z,25.34
2022-08-16T19:01:20.537Z,25.26
2022-08-16T19:04:47.759Z,25.14
2022-08-16T19:07:53.869Z,25.03
2022-08-16T19:10:56.332Z,24.92
2022-08-16T19:13:58.668Z,24.86
2022-08-16T19:17:00.878Z,24.76
2022-08-16T19:20:10.547Z,24.66
2022-08-16T19:23:15.400Z,24.57
2022-08-16T19:26:24.403Z,24.44
2022-08-16T19:29:28.217Z,24.34
2022-08-16T19:32:30.441Z,24.19
2022-08-16T19:35:33.984Z,24.16
2022-08-16T19:38:38.253Z,24.01
2022-08-16T19:41:45.856Z,23.80
2022-08-16T19:44:52.480Z,23.67
2022-08-16T19:48:03.899Z,23.55
2022-08-16T19:51:06.508Z,23.54
2022-08-16T19:54:08.697Z,23.56
2022-08-16T19:57:10.901Z,23.42
2022-08-16T20:00:18.091Z,23.31
2022-08-16T20:03:21.914Z,23.28
2022-08-16T20:06:32.343Z,23.29
2022-08-16T20:09:41.126Z,23.26
2022-08-16T20:12:43.317Z,23.21
2022-08-16T20:16:08.656Z,23.19
2022-08-16T20:19:10.689Z,23.15
2022-08-16T20:22:49.614Z,23.09
2022-08-16T20:25:47.491Z,23.04
2022-08-16T20:28:54.882Z,23.04
2022-08-16T20:31:59.400Z,23.00
2022-08-16T20:35:02.440Z,23.14
2022-08-16T20:38:05.136Z,22.92
2022-08-16T20:41:09.691Z,22.82
2022-08-16T20:44:13.224Z,22.74
2022-08-16T20:47:16.356Z,22.63
2022-08-16T20:50:22.942Z,22.59
2022-08-16T20:53:27.676Z,22.42
2022-08-16T20:56:30.656Z,22.38
2022-08-16T20:59:33.826Z,22.34
2022-08-16T21:02:38.911Z,22.31
2022-08-16T21:05:46.768Z,22.19
2022-08-16T21:08:52.322Z,22.14
2022-08-16T21:11:57.791Z,22.03
2022-08-16T21:15:05.473Z,21.95
2022-08-16T21:18:08.063Z,21.92
2022-08-16T21:21:12.060Z,21.96
2022-08-16T21:24:21.354Z,21.98
2022-08-16T21:27:24.322Z,21.88
2022-08-16T21:30:32.775Z,21.82
2022-08-16T21:33:35.366Z,21.90
2022-08-16T21:36:44.157Z,21.83
2022-08-16T21:39:51.989Z,21.90
2022-08-16T21:42:57.405Z,21.97
2022-08-16T21:46:06.758Z,21.98
2022-08-16T21:49:09.176Z,22.00
2022-08-16T21:52:21.122Z,22.02
2022-08-16T21:55:32.608Z,22.01
2022-08-16T21:58:35.170Z,21.97
2022-08-16T22:01:39.379Z,21.92
2022-08-16T22:04:41.992Z,21.86
2022-08-16T22:07:45.291Z,21.81
2022-08-16T22:11:06.960Z,21.78
2022-08-16T22:14:11.351Z,21.70
2022-08-16T22:17:15.004Z,21.66
2022-08-16T22:20:20.804Z,21.58
2022-08-16T22:23:26.561Z,21.54
2022-08-16T22:26:33.343Z,21.52
2022-08-16T22:29:36.024Z,21.46
2022-08-16T22:32:53.226Z,21.41
2022-08-16T22:35:57.914Z,21.35
2022-08-16T22:39:01.441Z,21.29
2022-08-16T22:42:08.867Z,21.23
2022-08-16T22:45:12.767Z,21.14
2022-08-16T22:48:17.500Z,21.10
2022-08-16T22:51:20.820Z,21.09
2022-08-16T22:54:42.546Z,21.03
2022-08-16T22:57:46.671Z,21.01
2022-08-16T23:00:49.411Z,20.99
2022-08-16T23:03:56.130Z,21.02
2022-08-16T23:07:00.245Z,21.02
2022-08-16T23:10:02.723Z,20.97
2022-08-16T23:13:06.344Z,20.95
2022-08-16T23:16:11.873Z,20.88
2022-08-16T23:19:15.609Z,20.90
2022-08-16T23:22:24.570Z,20.88
2022-08-16T23:25:29.763Z,20.86
2022-08-16T23:28:32.932Z,20.87
2022-08-16T23:31:35.374Z,20.81
2022-08-16T23:34:37.864Z,20.80
2022-08-16T23:37:41.047Z,20.74
2022-08-16T23:40:43.325Z,20.73
2022-08-16T23:43:45.797Z,20.73
2022-08-16T23:46:49.575Z,20.64
2022-08-16T23:50:00.633Z,20.59
2022-08-16T23:53:10.509Z,20.61
2022-08-16T23:56:16.572Z,20.49
2022-08-16T23:59:20.064Z,20.40
